Archival Weather

Heathrow

London, United Kingdom (EGLL)

Report from: Tuesday, June 18, 2024 1:50 AM BST
Current time: Monday, July 22, 2024 11:41 AM BST

Current weather – Weather history – Daily summaries
Weather forecast

Temperature15.0°C (59.0°F)
Dew point10.0°C (50.0°F)
Winds 3 kts (1.5 m/s, 3.5 mph) West (280°)
Visibility6.2 mi. (10 km)
Clouds Sky clear
Altimeter29.91 in.Hg (1013 mB)
Relative humidity72 %
Density altitude182 ft. (56 m)
Remarks Fully automated report
No clouds detected
No significant changes expected in the next two hours
Flight conditions Visual Meteorological Conditions
Raw dataEGLL 180050Z AUTO 28003KT 9999 NCD 15/10 Q1013 NOSIG
An error has occurred. This application may no longer respond until reloaded. Reload 🗙